createdAt,value
2022-08-19T00:00:31.076Z,49.15
2022-08-19T00:05:32.871Z,49.38
2022-08-19T00:10:35.130Z,49.98
2022-08-19T00:15:37.017Z,49.80
2022-08-19T00:20:41.414Z,50.16
2022-08-19T00:25:43.094Z,50.18
2022-08-19T00:30:52.927Z,50.42
2022-08-19T00:35:56.422Z,50.27
2022-08-19T00:40:58.584Z,50.33
2022-08-19T00:46:00.382Z,50.33
2022-08-19T00:51:02.603Z,50.40
2022-08-19T00:56:07.318Z,50.39
2022-08-19T01:01:08.999Z,50.19
2022-08-19T01:06:14.075Z,50.13
2022-08-19T01:11:22.231Z,50.09
2022-08-19T01:16:27.518Z,50.26
2022-08-19T01:21:38.753Z,49.96
2022-08-19T01:26:44.142Z,50.07
2022-08-19T01:31:45.939Z,50.19
2022-08-19T01:36:50.192Z,50.48
2022-08-19T01:41:55.369Z,50.55
2022-08-19T01:46:57.416Z,50.76
2022-08-19T01:52:00.912Z,50.92
2022-08-19T01:57:08.086Z,51.25
2022-08-19T02:02:10.030Z,51.43
2022-08-19T02:07:11.660Z,51.67
2022-08-19T02:12:13.418Z,51.93
2022-08-19T02:17:15.307Z,52.13
2022-08-19T02:22:16.945Z,51.95
2022-08-19T02:27:18.876Z,52.04
2022-08-19T02:32:21.082Z,51.90
2022-08-19T02:37:40.952Z,51.99
2022-08-19T02:42:43.776Z,51.88
2022-08-19T02:47:45.476Z,51.81
2022-08-19T02:52:47.163Z,51.82
2022-08-19T02:57:49.616Z,51.64
2022-08-19T03:02:51.321Z,51.63
2022-08-19T03:07:52.869Z,51.76
2022-08-19T03:12:54.665Z,51.71
2022-08-19T03:17:57.191Z,51.65
2022-08-19T03:22:59.095Z,51.88
2022-08-19T03:28:00.644Z,51.83
2022-08-19T03:33:02.864Z,51.75
2022-08-19T03:38:07.835Z,51.97
2022-08-19T03:43:09.641Z,51.76
2022-08-19T03:48:11.351Z,51.69
2022-08-19T03:53:13.025Z,51.95
2022-08-19T03:58:14.714Z,51.78
2022-08-19T04:03:16.614Z,52.08
2022-08-19T04:08:21.126Z,51.70
2022-08-19T04:13:23.295Z,51.82
2022-08-19T04:18:25.075Z,51.82
2022-08-19T04:23:29.257Z,51.91
2022-08-19T04:28:31.322Z,51.98
2022-08-19T04:33:33.290Z,51.95
2022-08-19T04:38:35.185Z,51.99
2022-08-19T04:43:39.454Z,51.94
2022-08-19T04:48:44.920Z,51.88
2022-08-19T04:53:52.250Z,51.83
2022-08-19T04:58:56.273Z,51.66
2022-08-19T05:03:59.691Z,51.63
2022-08-19T05:09:04.879Z,51.68
2022-08-19T05:14:08.633Z,51.91
2022-08-19T05:19:28.899Z,51.91
2022-08-19T05:24:51.199Z,51.93
2022-08-19T05:29:58.282Z,51.92
2022-08-19T05:35:00.083Z,51.98
2022-08-19T05:40:02.486Z,51.94
2022-08-19T05:45:05.507Z,51.99
2022-08-19T05:50:07.788Z,51.87
2022-08-19T05:55:09.600Z,52.30
2022-08-19T06:00:13.431Z,52.21
2022-08-19T06:05:16.737Z,52.19
2022-08-19T06:10:18.729Z,52.37
2022-08-19T06:15:20.814Z,52.24
2022-08-19T06:20:39.923Z,52.34
2022-08-19T06:25:44.413Z,52.35
2022-08-19T06:30:46.647Z,52.06
2022-08-19T06:35:49.587Z,52.22
2022-08-19T06:41:00.532Z,52.14
2022-08-19T06:46:02.934Z,52.08
2022-08-19T06:51:08.716Z,52.05
2022-08-19T06:56:10.611Z,51.89
2022-08-19T07:01:12.222Z,51.57
2022-08-19T07:06:43.263Z,51.79
2022-08-19T07:11:52.760Z,51.36
2022-08-19T07:16:57.204Z,51.79
2022-08-19T07:22:02.616Z,51.61
2022-08-19T07:27:15.078Z,51.56
2022-08-19T07:32:17.299Z,51.60
2022-08-19T07:37:19.691Z,51.66
2022-08-19T07:42:22.493Z,51.69
2022-08-19T07:47:48.734Z,51.94
2022-08-19T07:52:48.980Z,51.81
2022-08-19T07:57:53.507Z,51.79
2022-08-19T08:02:56.066Z,51.52
2022-08-19T08:08:17.223Z,51.62
2022-08-19T08:13:19.408Z,51.62
2022-08-19T08:18:21.656Z,51.46
2022-08-19T08:23:25.911Z,51.50
2022-08-19T08:28:31.313Z,51.54
2022-08-19T08:33:35.239Z,51.46
2022-08-19T08:38:40.264Z,51.23
2022-08-19T08:43:48.614Z,51.37
2022-08-19T08:48:55.716Z,51.25
2022-08-19T08:53:58.725Z,51.46
2022-08-19T08:59:09.312Z,51.31
2022-08-19T09:04:13.869Z,51.00
2022-08-19T09:09:22.253Z,51.04
2022-08-19T09:14:50.277Z,51.31
2022-08-19T09:19:57.582Z,51.27
2022-08-19T09:25:10.149Z,50.70
2022-08-19T09:30:24.881Z,51.12
2022-08-19T09:35:29.799Z,50.63
2022-08-19T09:40:36.579Z,50.65
2022-08-19T09:45:41.156Z,50.60
2022-08-19T09:50:51.904Z,50.43
2022-08-19T09:55:59.311Z,50.49
2022-08-19T10:01:03.111Z,50.49
2022-08-19T10:06:14.978Z,50.34
2022-08-19T10:11:28.005Z,50.25
2022-08-19T10:16:39.703Z,49.98
2022-08-19T10:21:42.765Z,49.95
2022-08-19T10:26:48.548Z,49.93
2022-08-19T10:32:01.342Z,50.18
2022-08-19T10:37:10.755Z,50.13
2022-08-19T10:42:14.250Z,50.27
2022-08-19T10:47:17.815Z,49.94
2022-08-19T10:52:38.896Z,49.92
2022-08-19T10:58:02.207Z,49.85
2022-08-19T11:03:04.578Z,49.94
2022-08-19T11:08:23.131Z,49.60
2022-08-19T11:13:26.322Z,49.43
2022-08-19T11:18:29.210Z,49.68
2022-08-19T11:23:32.228Z,49.79
2022-08-19T11:28:37.696Z,49.55
2022-08-19T11:33:47.205Z,49.15
2022-08-19T11:38:52.857Z,49.43
2022-08-19T11:43:56.739Z,48.70
2022-08-19T11:49:01.549Z,48.91
2022-08-19T11:54:06.341Z,48.26
2022-08-19T11:59:14.052Z,48.04
2022-08-19T12:04:17.326Z,48.23
2022-08-19T12:09:20.524Z,48.02
2022-08-19T12:14:22.481Z,48.35
2022-08-19T12:19:26.970Z,48.57
2022-08-19T12:24:28.781Z,49.19
2022-08-19T12:29:30.882Z,49.37
2022-08-19T12:34:33.467Z,49.58
2022-08-19T12:39:41.594Z,49.70
2022-08-19T12:44:44.801Z,49.77
2022-08-19T12:49:53.365Z,50.25
2022-08-19T12:54:58.315Z,50.51
2022-08-19T13:00:16.414Z,50.39
2022-08-19T13:05:22.027Z,50.74
2022-08-19T13:10:28.714Z,51.21
2022-08-19T13:15:32.309Z,51.11
2022-08-19T13:20:33.957Z,51.23
2022-08-19T13:25:36.414Z,51.25
2022-08-19T13:30:56.635Z,51.25
2022-08-19T13:36:01.742Z,51.26
2022-08-19T13:41:13.289Z,51.87
2022-08-19T13:46:17.099Z,52.01
2022-08-19T13:51:20.729Z,52.12
2022-08-19T13:56:26.273Z,52.49
2022-08-19T14:01:28.424Z,52.75
2022-08-19T14:06:31.350Z,52.48
2022-08-19T14:11:34.047Z,52.69
2022-08-19T14:16:36.236Z,52.80
2022-08-19T14:21:41.634Z,53.24
2022-08-19T14:26:44.228Z,53.22
2022-08-19T14:31:46.918Z,53.15
2022-08-19T14:36:49.394Z,53.01
2022-08-19T14:41:51.802Z,52.70
2022-08-19T14:46:54.297Z,52.53
2022-08-19T14:51:56.273Z,52.48
2022-08-19T14:56:57.955Z,52.21
2022-08-19T15:02:00.697Z,51.78
2022-08-19T15:07:22.727Z,51.86
2022-08-19T15:12:32.538Z,51.60
2022-08-19T15:17:44.986Z,51.87
2022-08-19T15:22:48.697Z,51.65
2022-08-19T15:27:51.189Z,51.81
2022-08-19T15:32:55.788Z,51.80
2022-08-19T15:37:57.878Z,51.83
2022-08-19T15:42:59.496Z,51.66
2022-08-19T15:48:03.034Z,51.88
2022-08-19T15:53:08.454Z,52.16
2022-08-19T15:58:32.059Z,52.15
2022-08-19T16:03:52.207Z,52.00
2022-08-19T16:09:05.273Z,52.13
2022-08-19T16:14:09.576Z,52.84
2022-08-19T16:19:12.216Z,52.51
2022-08-19T16:24:16.661Z,52.42
2022-08-19T16:29:33.272Z,52.46
2022-08-19T16:34:38.061Z,52.29
2022-08-19T16:39:40.960Z,52.65
2022-08-19T16:44:48.010Z,52.94
2022-08-19T16:49:54.473Z,52.88
2022-08-19T16:55:00.181Z,52.88
2022-08-19T17:00:09.896Z,53.13
2022-08-19T17:05:12.576Z,53.29
2022-08-19T17:10:15.292Z,53.26
2022-08-19T17:15:17.048Z,53.33
2022-08-19T17:20:19.561Z,53.46
2022-08-19T17:25:21.217Z,53.74
2022-08-19T17:30:24.582Z,53.64
2022-08-19T17:35:27.321Z,53.68
2022-08-19T17:40:29.240Z,53.67
2022-08-19T17:45:31.909Z,53.94
2022-08-19T17:50:35.278Z,53.81
2022-08-19T17:55:36.961Z,54.07
2022-08-19T18:00:38.574Z,54.12
2022-08-19T18:05:57.276Z,54.13
2022-08-19T18:10:59.998Z,54.43
2022-08-19T18:16:03.565Z,54.61
2022-08-19T18:21:05.852Z,54.48
2022-08-19T18:26:07.932Z,54.56
2022-08-19T18:31:09.679Z,54.98
2022-08-19T18:36:11.910Z,55.18
2022-08-19T18:41:32.622Z,55.25
2022-08-19T18:46:53.664Z,55.30
2022-08-19T18:52:03.581Z,55.46
2022-08-19T18:57:05.998Z,55.57
2022-08-19T19:02:08.475Z,55.37
2022-08-19T19:07:10.238Z,55.60
2022-08-19T19:12:14.301Z,55.45
2022-08-19T19:17:16.963Z,55.69
2022-08-19T19:22:21.513Z,55.98
2022-08-19T19:27:24.693Z,55.91
2022-08-19T19:32:32.397Z,56.11
2022-08-19T19:37:35.545Z,56.40
2022-08-19T19:42:37.789Z,56.23
2022-08-19T19:47:39.939Z,56.12
2022-08-19T19:52:42.886Z,56.38
2022-08-19T19:57:48.931Z,56.42
2022-08-19T20:02:51.639Z,56.31
2022-08-19T20:08:13.678Z,56.18
2022-08-19T20:13:15.833Z,56.31
2022-08-19T20:18:18.354Z,56.36
2022-08-19T20:23:22.431Z,56.21
2022-08-19T20:28:24.488Z,56.24
2022-08-19T20:33:28.595Z,56.38
2022-08-19T20:38:35.374Z,56.34
2022-08-19T20:43:39.192Z,56.12
2022-08-19T20:48:43.094Z,55.90
2022-08-19T20:53:45.115Z,56.08
2022-08-19T20:58:49.954Z,55.85
2022-08-19T21:03:56.245Z,56.09
2022-08-19T21:08:57.893Z,55.98
2022-08-19T21:14:01.138Z,55.87
2022-08-19T21:19:04.889Z,55.68
2022-08-19T21:24:06.865Z,55.82
2022-08-19T21:29:09.218Z,55.40
2022-08-19T21:34:12.966Z,55.26
2022-08-19T21:39:14.626Z,55.44
2022-08-19T21:44:17.047Z,54.88
2022-08-19T21:49:20.026Z,54.78
2022-08-19T21:54:22.552Z,55.12
2022-08-19T21:59:25.257Z,54.60
2022-08-19T22:04:28.595Z,54.75
2022-08-19T22:09:30.930Z,54.41
2022-08-19T22:14:33.919Z,54.82
2022-08-19T22:19:35.883Z,54.77
2022-08-19T22:24:37.595Z,54.71
2022-08-19T22:29:39.552Z,54.53
2022-08-19T22:34:42.033Z,54.54
2022-08-19T22:39:44.566Z,54.43
2022-08-19T22:44:47.020Z,54.50
2022-08-19T22:49:48.867Z,54.41
2022-08-19T22:54:52.897Z,54.46
2022-08-19T23:00:01.275Z,54.47
2022-08-19T23:05:05.514Z,54.03
2022-08-19T23:10:10.368Z,54.25
2022-08-19T23:15:26.009Z,54.28
2022-08-19T23:20:34.241Z,53.70
2022-08-19T23:25:37.334Z,54.00
2022-08-19T23:30:43.835Z,54.17
2022-08-19T23:35:45.931Z,54.15
2022-08-19T23:40:53.468Z,54.19
2022-08-19T23:46:00.945Z,54.17
2022-08-19T23:51:09.422Z,54.17
2022-08-19T23:56:12.897Z,54.18
